Time;durP1;ratioP1;P1;durP2;ratioP2;P2;SDS_P1;SDS_P2;PMS_P1;PMS_P2;Temp;Humidity;BMP_temperature;BMP_pressure;BME280_temperature;BME280_humidity;BME280_pressure;Samples;Min_cycle;Max_cycle;Signal;HPM_P1;HPM_P2
2022/03/18 00:01:12;;;;;;;14.40;5.35;;;5.20;99.90;;;;;;5130099;27;20104;-80
2022/03/18 00:03:37;;;;;;;15.75;5.00;;;5.20;99.90;;;;;;5130035;27;20073;-80
2022/03/18 00:06:03;;;;;;;20.02;5.57;;;5.10;99.90;;;;;;5130255;27;20569;-80
2022/03/18 00:08:29;;;;;;;15.00;5.20;;;5.10;99.90;;;;;;5129680;27;20055;-80
2022/03/18 00:10:55;;;;;;;15.32;5.07;;;5.10;99.90;;;;;;5111789;27;20125;-80
2022/03/18 00:13:21;;;;;;;15.93;4.82;;;5.10;99.90;;;;;;5111577;28;20097;-80
2022/03/18 00:15:47;;;;;;;16.25;5.32;;;5.10;99.90;;;;;;5129939;27;20035;-79
2022/03/18 00:18:12;;;;;;;15.40;5.25;;;5.00;99.90;;;;;;5111242;28;20050;-80
2022/03/18 00:20:38;;;;;;;17.40;5.30;;;5.00;99.90;;;;;;5129710;27;20397;-80
2022/03/18 00:23:03;;;;;;;10.25;4.80;;;5.00;99.90;;;;;;5111017;27;20039;-79
2022/03/18 00:25:29;;;;;;;16.50;5.78;;;4.90;99.90;;;;;;5111330;27;20134;-80
2022/03/18 00:27:55;;;;;;;19.67;4.85;;;4.90;99.90;;;;;;5111837;28;20055;-80
2022/03/18 00:30:21;;;;;;;19.40;5.00;;;4.80;99.90;;;;;;5111717;27;20099;-80
2022/03/18 00:32:49;;;;;;;18.35;5.72;;;4.80;99.90;;;;;;5110758;27;20039;-80
2022/03/18 00:35:15;;;;;;;12.15;5.43;;;4.70;99.90;;;;;;5111332;27;20054;-80
2022/03/18 00:37:41;;;;;;;13.52;4.80;;;4.70;99.90;;;;;;5130210;27;20456;-80
2022/03/18 00:40:07;;;;;;;13.13;4.75;;;4.70;99.90;;;;;;5111471;27;20035;-80
2022/03/18 00:42:33;;;;;;;15.13;5.18;;;4.70;99.90;;;;;;5094231;27;20054;-80
2022/03/18 00:45:00;;;;;;;11.85;5.18;;;4.70;99.90;;;;;;5093847;27;20035;-80
2022/03/18 00:52:54;;;;;;;12.35;5.15;;;4.60;99.90;;;;;;5111144;27;20151;-80
2022/03/18 00:55:20;;;;;;;17.73;5.38;;;4.60;99.90;;;;;;5115436;27;20122;-80
2022/03/18 00:57:46;;;;;;;14.95;4.97;;;4.60;99.90;;;;;;5133238;27;20118;-80
2022/03/18 01:00:12;;;;;;;13.00;4.65;;;4.50;99.90;;;;;;5115080;27;20469;-80
2022/03/18 01:02:38;;;;;;;13.70;5.25;;;4.60;99.90;;;;;;5114913;27;20055;-80
2022/03/18 01:05:04;;;;;;;15.20;5.65;;;4.60;99.90;;;;;;5115174;27;20150;-80
2022/03/18 01:07:30;;;;;;;23.92;5.63;;;4.60;99.90;;;;;;5098359;27;20077;-80
2022/03/18 01:09:57;;;;;;;15.85;5.00;;;4.50;99.90;;;;;;5114631;27;20560;-80
2022/03/18 01:12:22;;;;;;;19.17;5.57;;;4.50;99.90;;;;;;5114811;27;20049;-80
2022/03/18 01:14:48;;;;;;;14.50;5.25;;;4.50;99.90;;;;;;5114772;27;20035;-80
2022/03/18 01:17:14;;;;;;;;;;;4.50;99.90;;;;;;5115169;27;20071;-80
2022/03/18 01:19:40;;;;;;;;;;;4.50;99.90;;;;;;5115345;27;20349;-80
2022/03/18 01:22:05;;;;;;;;;;;4.50;99.90;;;;;;5097658;27;19926;-80
2022/03/18 01:24:31;;;;;;;;;;;4.50;99.90;;;;;;5115129;27;19927;-80
2022/03/18 01:26:56;;;;;;;;;;;4.50;99.90;;;;;;5115056;27;19923;-79
2022/03/18 01:29:22;;;;;;;;;;;4.50;99.90;;;;;;5114919;27;19964;-79
2022/03/18 01:31:48;;;;;;;;;;;4.50;99.90;;;;;;5114752;27;20010;-80
2022/03/18 01:34:14;;;;;;;;;;;4.50;99.90;;;;;;5115055;27;19930;-79
2022/03/18 01:36:40;;;;;;;12.70;4.70;;;4.50;99.90;;;;;;5133106;27;20010;-80
2022/03/18 01:39:05;;;;;;;12.82;5.05;;;4.50;99.90;;;;;;5132750;27;20158;-80
2022/03/18 01:41:32;;;;;;;17.15;5.97;;;4.50;99.90;;;;;;5113726;27;20039;-80
2022/03/18 01:43:57;;;;;;;20.73;6.47;;;4.50;99.90;;;;;;5097062;27;20051;-80
2022/03/18 01:46:24;;;;;;;20.40;6.40;;;4.40;99.90;;;;;;5132958;27;20087;-80
2022/03/18 01:48:49;;;;;;;18.30;6.53;;;4.40;99.90;;;;;;5114071;27;20086;-80
2022/03/18 01:51:16;;;;;;;14.73;6.00;;;4.40;99.90;;;;;;5132189;27;20507;-80
2022/03/18 01:53:43;;;;;;;15.25;5.80;;;4.50;99.90;;;;;;5114070;27;20496;-80
2022/03/18 01:56:09;;;;;;;15.05;5.72;;;4.40;99.90;;;;;;5096973;27;20054;-80
2022/03/18 01:58:35;;;;;;;18.10;6.95;;;4.40;99.90;;;;;;5113793;27;20050;-81
2022/03/18 02:01:01;;;;;;;19.55;7.40;;;4.40;99.90;;;;;;5132130;27;20398;-80
2022/03/18 02:03:27;;;;;;;22.50;6.50;;;4.40;99.90;;;;;;5132282;27;20114;-80
2022/03/18 02:05:53;;;;;;;15.73;6.90;;;4.40;99.90;;;;;;5112880;27;20499;-81
2022/03/18 02:08:20;;;;;;;14.70;7.63;;;4.40;99.90;;;;;;5131307;27;20043;-80
2022/03/18 02:10:46;;;;;;;15.73;7.03;;;4.40;99.90;;;;;;5112800;27;20401;-81
2022/03/18 02:13:12;;;;;;;19.85;8.20;;;4.40;99.90;;;;;;5112680;27;20042;-81
2022/03/18 02:15:38;;;;;;;16.52;7.45;;;4.40;99.90;;;;;;5131093;27;20447;-81
2022/03/18 02:18:05;;;;;;;21.48;7.55;;;4.40;99.90;;;;;;5112554;27;20052;-81
2022/03/18 02:20:34;;;;;;;17.73;7.72;;;4.30;99.90;;;;;;5112274;27;20047;-81
2022/03/18 02:23:00;;;;;;;16.17;7.25;;;4.30;99.90;;;;;;5112642;27;20047;-81
2022/03/18 02:25:26;;;;;;;25.02;9.63;;;4.20;99.90;;;;;;5112447;27;20065;-81
2022/03/18 02:27:57;;;;;;;18.33;7.45;;;4.20;99.90;;;;;;5111971;27;20048;-80
2022/03/18 02:30:24;;;;;;;18.30;8.23;;;4.20;99.90;;;;;;5130814;27;20043;-81
2022/03/18 02:32:50;;;;;;;20.00;7.53;;;4.20;99.90;;;;;;5112357;27;20035;-81
2022/03/18 02:35:15;;;;;;;19.77;7.88;;;4.10;99.90;;;;;;5094841;27;20072;-81
2022/03/18 02:37:41;;;;;;;17.63;7.20;;;4.20;99.90;;;;;;5112311;27;20053;-81
2022/03/18 02:40:07;;;;;;;18.38;8.00;;;4.10;99.90;;;;;;5112732;27;20049;-81
2022/03/18 02:42:33;;;;;;;18.38;7.32;;;4.10;99.90;;;;;;5111932;27;20051;-81
2022/03/18 02:45:00;;;;;;;23.45;8.48;;;4.10;99.90;;;;;;5111968;27;20126;-80
2022/03/18 02:47:26;;;;;;;18.40;8.20;;;4.10;99.90;;;;;;5112154;27;20162;-81
2022/03/18 02:49:52;;;;;;;19.10;9.15;;;4.10;99.90;;;;;;5111981;27;20078;-79
2022/03/18 02:52:19;;;;;;;19.85;9.20;;;4.00;99.90;;;;;;5095256;27;20050;-80
2022/03/18 02:54:45;;;;;;;23.90;8.90;;;4.00;99.90;;;;;;5111879;27;20043;-80
2022/03/18 02:57:10;;;;;;;19.35;8.32;;;4.10;99.90;;;;;;5111734;27;20046;-80
2022/03/18 02:59:36;;;;;;;22.02;7.90;;;4.00;99.90;;;;;;5112981;27;20054;-80
2022/03/18 03:02:02;;;;;;;13.60;8.15;;;4.00;99.90;;;;;;5112733;27;20047;-79
2022/03/18 03:04:28;;;;;;;14.88;8.82;;;4.00;99.90;;;;;;5112907;27;20039;-79
2022/03/18 03:09:37;;;;;;;26.13;8.85;;;4.00;99.90;;;;;;5112713;27;20047;-80
2022/03/18 03:12:03;;;;;;;18.95;8.63;;;4.00;99.90;;;;;;5112802;27;20053;-80
2022/03/18 03:14:29;;;;;;;22.05;8.65;;;3.90;99.90;;;;;;5112871;27;20129;-80
2022/03/18 03:16:55;;;;;;;19.17;8.93;;;3.90;99.90;;;;;;5111290;27;20541;-80
2022/03/18 03:19:20;;;;;;;20.52;9.63;;;3.90;99.90;;;;;;5112817;27;20126;-79
2022/03/18 03:21:47;;;;;;;20.85;8.82;;;3.90;99.90;;;;;;5095043;27;20582;-79
2022/03/18 03:24:13;;;;;;;22.52;8.73;;;3.90;99.90;;;;;;5130679;27;20043;-80
2022/03/18 03:26:39;;;;;;;17.42;9.13;;;3.90;99.90;;;;;;5112400;27;20467;-80
2022/03/18 03:29:04;;;;;;;25.83;9.43;;;3.80;99.90;;;;;;5130612;27;20134;-80
2022/03/18 03:31:30;;;;;;;18.85;9.30;;;3.90;99.90;;;;;;5130094;27;20144;-81
2022/03/18 03:33:56;;;;;;;16.90;8.57;;;3.80;99.90;;;;;;5094815;27;20091;-80
2022/03/18 03:36:23;;;;;;;19.48;8.45;;;3.80;99.90;;;;;;5112431;27;20039;-80
2022/03/18 03:38:49;;;;;;;19.80;9.73;;;3.80;99.90;;;;;;5111546;27;20135;-80
2022/03/18 03:41:14;;;;;;;19.42;10.00;;;3.90;99.90;;;;;;5130354;27;20126;-80
2022/03/18 03:43:41;;;;;;;24.20;10.80;;;3.90;99.90;;;;;;5111594;27;20039;-80
2022/03/18 03:46:07;;;;;;;15.98;9.32;;;3.90;99.90;;;;;;5111906;27;20047;-80
2022/03/18 03:48:33;;;;;;;23.52;9.82;;;3.80;99.90;;;;;;5111855;27;20058;-80
2022/03/18 03:50:58;;;;;;;24.60;10.00;;;3.80;99.90;;;;;;5111704;27;20134;-80
2022/03/18 03:53:24;;;;;;;21.05;9.95;;;3.90;99.90;;;;;;5111007;27;20179;-80
2022/03/18 03:55:50;;;;;;;20.73;8.93;;;3.90;99.90;;;;;;5129590;27;20035;-80
2022/03/18 03:58:16;;;;;;;20.42;9.57;;;3.80;99.90;;;;;;5094522;28;20043;-80
2022/03/18 04:00:42;;;;;;;19.13;9.15;;;3.80;99.90;;;;;;5111308;28;20077;-80
2022/03/18 04:03:07;;;;;;;18.25;9.95;;;3.80;99.90;;;;;;5111692;27;20401;-80
2022/03/18 04:05:34;;;;;;;17.00;9.77;;;3.80;99.90;;;;;;5111932;27;20074;-80
2022/03/18 04:08:00;;;;;;;18.15;9.10;;;3.80;99.90;;;;;;5112003;27;20086;-80
2022/03/18 04:10:26;;;;;;;21.13;9.65;;;3.80;99.90;;;;;;5111489;27;20483;-80
2022/03/18 04:12:53;;;;;;;18.23;8.93;;;3.80;99.90;;;;;;5111775;27;20047;-80
2022/03/18 04:15:18;;;;;;;21.17;9.18;;;3.80;99.90;;;;;;5094482;28;20122;-80
2022/03/18 04:17:47;;;;;;;19.98;9.30;;;3.80;99.90;;;;;;5099656;28;20186;-80
2022/03/18 04:20:22;;;;;;;16.63;9.25;;;3.90;99.90;;;;;;5074486;28;20134;-80
2022/03/18 04:22:49;;;;;;;17.95;9.18;;;3.90;99.90;;;;;;5074175;28;20444;-80
2022/03/18 04:25:15;;;;;;;19.10;8.02;;;3.90;99.90;;;;;;5091178;28;20035;-80
2022/03/18 04:27:41;;;;;;;16.88;8.38;;;4.00;99.90;;;;;;5095774;28;20111;-81
2022/03/18 04:30:10;;;;;;;19.73;8.88;;;4.00;99.90;;;;;;5098417;27;20122;-80
2022/03/18 04:32:36;;;;;;;13.82;7.32;;;4.10;99.90;;;;;;5115632;27;20564;-80
2022/03/18 04:35:03;;;;;;;20.27;8.00;;;4.20;99.90;;;;;;5115443;27;20039;-80
2022/03/18 04:37:28;;;;;;;14.30;7.75;;;4.20;99.90;;;;;;5114653;27;20039;-80
2022/03/18 04:39:54;;;;;;;13.50;7.72;;;4.30;99.90;;;;;;5132782;27;20465;-80
2022/03/18 04:42:20;;;;;;;17.40;8.45;;;4.40;99.90;;;;;;5133251;27;20061;-80
2022/03/18 04:44:46;;;;;;;12.65;8.02;;;4.40;99.90;;;;;;5114387;27;20039;-80
2022/03/18 04:47:12;;;;;;;16.55;7.97;;;4.40;99.90;;;;;;5133606;27;20043;-80
2022/03/18 04:49:38;;;;;;;16.15;8.48;;;4.40;99.90;;;;;;5115743;27;20050;-80
2022/03/18 04:52:04;;;;;;;14.45;7.93;;;4.50;99.90;;;;;;5115201;27;20473;-80
2022/03/18 04:54:30;;;;;;;16.38;8.32;;;4.50;99.90;;;;;;5097993;27;20091;-80
2022/03/18 04:59:42;;;;;;;22.30;8.32;;;4.60;99.90;;;;;;5115333;27;20079;-80
2022/03/18 05:02:10;;;;;;;15.88;8.43;;;4.60;99.90;;;;;;5114889;27;20042;-80
2022/03/18 05:04:37;;;;;;;15.88;8.25;;;4.60;99.90;;;;;;5115397;27;20408;-80
2022/03/18 05:07:04;;;;;;;16.08;8.05;;;4.60;99.90;;;;;;5114297;27;20039;-80
2022/03/18 05:09:30;;;;;;;15.88;8.52;;;4.60;99.90;;;;;;5115125;27;20448;-80
2022/03/18 05:11:55;;;;;;;18.13;8.48;;;4.60;99.90;;;;;;5097733;27;20134;-80
2022/03/18 05:14:21;;;;;;;19.88;8.60;;;4.50;99.90;;;;;;5114596;27;20042;-80
2022/03/18 05:16:47;;;;;;;18.67;9.00;;;4.50;99.90;;;;;;5118069;27;20130;-80
2022/03/18 05:19:12;;;;;;;17.48;8.40;;;4.50;99.90;;;;;;5135430;27;20051;-80
2022/03/18 05:21:39;;;;;;;15.45;8.75;;;4.40;99.90;;;;;;5135270;27;20516;-80
2022/03/18 05:24:06;;;;;;;15.95;8.80;;;4.40;99.90;;;;;;5135022;27;20046;-80
2022/03/18 05:26:33;;;;;;;20.60;9.02;;;4.40;99.90;;;;;;5117871;27;20457;-80
2022/03/18 05:28:58;;;;;;;15.38;9.00;;;4.30;99.90;;;;;;5135293;27;20046;-80
2022/03/18 05:31:26;;;;;;;17.55;9.30;;;4.30;99.90;;;;;;5135002;27;20513;-80
2022/03/18 05:33:51;;;;;;;16.65;9.20;;;4.20;99.90;;;;;;5117469;27;20038;-80
2022/03/18 05:36:17;;;;;;;14.63;9.55;;;4.20;99.90;;;;;;5117849;27;20490;-80
2022/03/18 05:38:43;;;;;;;18.67;9.30;;;4.20;99.90;;;;;;5134468;27;20078;-80
2022/03/18 05:41:09;;;;;;;17.80;10.23;;;4.10;99.90;;;;;;5134169;27;20047;-80
2022/03/18 05:43:36;;;;;;;16.88;9.68;;;4.00;99.90;;;;;;5134469;27;20041;-80
2022/03/18 05:46:01;;;;;;;20.90;10.70;;;4.00;99.90;;;;;;5118002;27;20050;-80
2022/03/18 05:48:27;;;;;;;20.83;10.07;;;4.00;99.90;;;;;;5134673;27;20043;-81
2022/03/18 05:50:53;;;;;;;14.50;9.93;;;4.00;99.90;;;;;;5134281;27;20053;-80
2022/03/18 05:53:18;;;;;;;16.92;10.00;;;3.90;99.90;;;;;;5135260;27;20038;-80
2022/03/18 05:58:29;;;;;;;18.85;10.75;;;3.90;99.90;;;;;;5134959;27;20054;-80
2022/03/18 06:00:56;;;;;;;16.27;9.57;;;3.90;99.90;;;;;;5134676;27;20054;-80
2022/03/18 06:03:21;;;;;;;21.23;10.48;;;3.90;99.90;;;;;;5134529;27;20044;-80
2022/03/18 06:05:47;;;;;;;16.60;10.70;;;3.80;99.90;;;;;;5134350;27;20422;-80
2022/03/18 06:13:41;;;;;;;21.60;11.15;;;3.80;99.90;;;;;;5133810;27;20050;-80
2022/03/18 06:16:07;;;;;;;16.27;10.32;;;3.80;99.90;;;;;;5134369;27;20068;-80
2022/03/18 06:18:33;;;;;;;21.42;10.98;;;3.80;99.90;;;;;;5133790;27;20086;-80
2022/03/18 06:20:59;;;;;;;18.33;11.10;;;3.80;99.90;;;;;;5134073;27;20792;-80
2022/03/18 06:23:25;;;;;;;18.98;10.35;;;3.80;99.90;;;;;;5117266;27;20078;-80
2022/03/18 06:25:51;;;;;;;18.83;11.30;;;3.80;99.90;;;;;;5134101;27;20043;-80
2022/03/18 06:28:16;;;;;;;16.92;11.68;;;3.80;99.90;;;;;;5134208;27;20038;-80
2022/03/18 06:30:42;;;;;;;22.85;13.25;;;3.80;99.90;;;;;;5133930;27;20087;-80
2022/03/18 06:33:08;;;;;;;24.23;11.40;;;3.80;99.90;;;;;;5132489;27;20087;-80
2022/03/18 06:35:34;;;;;;;19.10;11.63;;;3.80;99.90;;;;;;5116492;27;20043;-80
2022/03/18 06:37:59;;;;;;;19.35;11.65;;;3.90;99.90;;;;;;5095903;27;20035;-78
2022/03/18 06:40:25;;;;;;;17.77;11.63;;;3.90;99.90;;;;;;5096099;27;20511;-78
2022/03/18 06:42:51;;;;;;;15.68;11.27;;;3.90;99.90;;;;;;5120285;27;20061;-80
2022/03/18 06:45:16;;;;;;;29.60;12.05;;;3.90;99.90;;;;;;5117012;27;20047;-78
2022/03/18 06:47:42;;;;;;;21.40;12.68;;;4.00;99.90;;;;;;5130859;27;20123;-80
2022/03/18 06:50:09;;;;;;;25.92;12.40;;;4.00;99.90;;;;;;5118529;27;20116;-81
2022/03/18 06:52:35;;;;;;;22.23;12.55;;;4.10;99.90;;;;;;5132485;27;20178;-81
2022/03/18 06:55:01;;;;;;;25.05;12.10;;;4.10;99.90;;;;;;5133696;27;20502;-81
2022/03/18 06:57:27;;;;;;;18.92;12.30;;;4.10;99.90;;;;;;5132756;27;20404;-81
2022/03/18 06:59:52;;;;;;;17.77;13.20;;;4.20;99.90;;;;;;5132954;27;20039;-81
2022/03/18 07:02:18;;;;;;;26.10;14.38;;;4.20;99.90;;;;;;5124343;27;20046;-81
2022/03/18 07:04:43;;;;;;;21.27;12.40;;;4.20;99.90;;;;;;5112500;27;20039;-81
2022/03/18 07:07:09;;;;;;;22.67;13.48;;;4.30;99.90;;;;;;5112907;27;20508;-81
2022/03/18 07:09:36;;;;;;;26.63;14.05;;;4.30;99.90;;;;;;5130668;27;20035;-81
2022/03/18 07:12:02;;;;;;;;;;;4.40;99.90;;;;;;5113390;27;20130;-81
2022/03/18 07:14:27;;;;;;;;;;;4.50;99.90;;;;;;5131538;27;20380;-81
2022/03/18 07:19:38;;;;;;;23.20;14.88;;;4.60;99.90;;;;;;5112130;27;20040;-81
2022/03/18 07:22:05;;;;;;;20.52;13.55;;;4.70;99.90;;;;;;5095415;27;20046;-81
2022/03/18 07:24:31;;;;;;;20.02;13.15;;;4.70;99.90;;;;;;5112105;27;20039;-81
2022/03/18 07:26:56;;;;;;;20.60;14.43;;;4.80;99.90;;;;;;5111438;27;20039;-81
2022/03/18 07:29:22;;;;;;;26.23;15.00;;;4.90;99.90;;;;;;5130719;27;20047;-81
2022/03/18 07:31:48;;;;;;;24.30;15.57;;;4.90;99.90;;;;;;5095231;27;20071;-79
2022/03/18 07:34:13;;;;;;;20.52;14.45;;;5.00;99.90;;;;;;5094972;27;20039;-79
2022/03/18 07:36:39;;;;;;;23.10;15.00;;;5.10;99.90;;;;;;5112046;27;20125;-79
2022/03/18 07:39:04;;;;;;;;;;;5.10;99.90;;;;;;5112857;27;20100;-79
2022/03/18 07:41:30;;;;;;;;;;;5.20;99.90;;;;;;5112040;27;20010;-79
2022/03/18 07:43:56;;;;;;;;;;;5.30;99.90;;;;;;5112207;27;19988;-80
2022/03/18 07:46:21;;;;;;;;;;;5.40;99.90;;;;;;5095314;27;20018;-79
2022/03/18 07:48:47;;;;;;;;;;;5.50;99.90;;;;;;5112438;27;19919;-79
2022/03/18 07:51:12;;;;;;;27.50;17.02;;;5.50;99.90;;;;;;5110970;27;19931;-79
2022/03/18 07:53:38;;;;;;;31.00;21.47;;;5.60;99.90;;;;;;5128874;27;20444;-80
2022/03/18 07:56:04;;;;;;;30.95;22.50;;;5.70;99.90;;;;;;5092884;28;20425;-80
2022/03/18 07:58:30;;;;;;;32.30;21.15;;;5.90;99.90;;;;;;5110416;27;20411;-81
2022/03/18 08:00:56;;;;;;;31.90;21.60;;;6.00;99.90;;;;;;5110358;27;20803;-81
2022/03/18 08:03:22;;;;;;;30.25;21.08;;;6.10;99.90;;;;;;5109798;28;20418;-81
2022/03/18 08:05:47;;;;;;;28.85;18.42;;;6.20;99.90;;;;;;5111401;27;20473;-79
2022/03/18 08:08:13;;;;;;;25.35;18.35;;;6.40;99.90;;;;;;5111942;28;20055;-81
2022/03/18 08:10:39;;;;;;;29.08;17.65;;;6.40;99.90;;;;;;5111391;27;20517;-82
2022/03/18 08:13:05;;;;;;;27.23;17.77;;;6.50;99.90;;;;;;5094418;28;20050;-80
2022/03/18 08:15:32;;;;;;;27.38;17.02;;;6.70;99.90;;;;;;5111779;28;20064;-80
2022/03/18 08:17:58;;;;;;;29.23;18.55;;;6.70;99.90;;;;;;5111105;28;20138;-81
2022/03/18 08:20:24;;;;;;;27.80;18.33;;;6.80;99.90;;;;;;5129895;28;20054;-81
2022/03/18 08:22:50;;;;;;;29.10;18.73;;;6.90;99.90;;;;;;5094562;28;20154;-81
2022/03/18 08:25:17;;;;;;;29.00;18.23;;;6.90;99.90;;;;;;5094257;28;20047;-81
2022/03/18 08:27:43;;;;;;;32.58;18.30;;;7.00;99.90;;;;;;5111827;28;20047;-81
2022/03/18 08:30:11;;;;;;;28.00;17.88;;;7.10;99.90;;;;;;5111789;28;20038;-81
2022/03/18 08:32:37;;;;;;;35.80;19.13;;;7.20;99.90;;;;;;5111479;28;20548;-81
2022/03/18 08:35:03;;;;;;;26.83;17.60;;;7.30;99.90;;;;;;5111463;28;20404;-81
2022/03/18 08:40:13;;;;;;;33.67;21.52;;;7.50;99.90;;;;;;5110138;28;20434;-81
2022/03/18 08:42:40;;;;;;;32.30;20.43;;;7.60;99.90;;;;;;5128202;28;20426;-81
2022/03/18 08:45:06;;;;;;;32.50;19.15;;;7.60;99.90;;;;;;5111345;28;20043;-81
2022/03/18 08:47:32;;;;;;;29.77;17.23;;;7.70;99.90;;;;;;5129796;28;20054;-81
2022/03/18 08:49:58;;;;;;;31.50;17.08;;;7.80;99.90;;;;;;5094335;28;20035;-81
2022/03/18 08:52:24;;;;;;;30.42;17.50;;;7.90;99.90;;;;;;5129693;28;20070;-81
2022/03/18 08:54:49;;;;;;;27.73;16.40;;;8.00;99.90;;;;;;5111541;28;20051;-81
2022/03/18 08:57:16;;;;;;;34.03;18.35;;;8.10;99.90;;;;;;5111196;28;20049;-81
2022/03/18 08:59:42;;;;;;;31.20;17.45;;;8.20;99.90;;;;;;5111164;28;20121;-81
2022/03/18 09:02:08;;;;;;;34.67;16.75;;;8.20;99.90;;;;;;5118555;27;20135;-81
2022/03/18 09:04:33;;;;;;;32.08;18.45;;;8.30;99.90;;;;;;5131866;27;20402;-81
2022/03/18 09:06:59;;;;;;;31.98;15.95;;;8.40;99.90;;;;;;5130751;27;20042;-81
2022/03/18 09:09:25;;;;;;;34.90;18.35;;;8.50;99.90;;;;;;5129439;27;20390;-81
2022/03/18 09:11:50;;;;;;;32.30;17.37;;;8.70;99.90;;;;;;5129053;27;20899;-81
2022/03/18 09:14:16;;;;;;;26.65;16.48;;;8.70;99.90;;;;;;5129871;27;20405;-81
2022/03/18 09:16:41;;;;;;;29.83;17.00;;;8.80;99.90;;;;;;5132664;27;20399;-81
2022/03/18 09:19:08;;;;;;;27.55;16.00;;;9.00;99.90;;;;;;5132489;27;20400;-81
2022/03/18 09:21:34;;;;;;;29.17;14.35;;;9.10;99.90;;;;;;5115980;27;21306;-81
2022/03/18 09:24:01;;;;;;;27.63;11.98;;;9.30;99.90;;;;;;5132936;27;20489;-81
2022/03/18 09:26:27;;;;;;;23.08;9.40;;;10.00;99.90;;;;;;5115997;27;20404;-81
2022/03/18 09:28:52;;;;;;;23.63;8.67;;;11.00;99.90;;;;;;5133065;27;20396;-80
2022/03/18 09:31:18;;;;;;;24.17;8.13;;;12.10;99.90;;;;;;5132794;27;20800;-80
2022/03/18 09:33:46;;;;;;;21.83;7.88;;;12.90;99.90;;;;;;5115376;27;20752;-80
2022/03/18 09:36:14;;;;;;;24.25;7.82;;;13.70;99.90;;;;;;5133005;27;20754;-82
2022/03/18 09:38:41;;;;;;;22.30;8.07;;;14.40;99.90;;;;;;5116565;27;20907;-82
2022/03/18 09:41:07;;;;;;;20.20;8.15;;;14.90;99.90;;;;;;5136495;27;20416;-80
2022/03/18 09:43:34;;;;;;;21.83;8.40;;;15.40;99.90;;;;;;5133399;27;20409;-81
2022/03/18 09:46:02;;;;;;;24.15;8.77;;;15.70;99.90;;;;;;5132939;27;20405;-82
2022/03/18 09:48:29;;;;;;;21.23;8.13;;;16.00;99.90;;;;;;5152202;27;20408;-82
2022/03/18 09:50:55;;;;;;;21.40;8.23;;;16.30;99.90;;;;;;5116534;27;20401;-82
2022/03/18 09:53:21;;;;;;;21.57;8.20;;;16.60;99.90;;;;;;5151701;27;20955;-81
2022/03/18 09:55:51;;;;;;;24.33;8.20;;;16.80;99.90;;;;;;5133076;27;20397;-81
2022/03/18 09:58:17;;;;;;;22.42;7.53;;;17.00;99.90;;;;;;5152132;27;20388;-81
2022/03/18 10:00:43;;;;;;;23.17;7.15;;;17.20;99.90;;;;;;5116097;27;20771;-81
2022/03/18 10:03:16;;;;;;;20.23;6.60;;;17.50;98.80;;;;;;5117525;27;20448;-82
2022/03/18 10:05:50;;;;;;;21.25;6.07;;;17.70;98.50;;;;;;5112222;27;20434;-82
2022/03/18 10:08:17;;;;;;;20.27;5.93;;;18.10;96.30;;;;;;5112562;27;20806;-79
2022/03/18 10:10:47;;;;;;;19.52;6.43;;;18.10;95.30;;;;;;5112378;27;20484;-80
2022/03/18 10:13:13;;;;;;;18.58;5.50;;;18.00;94.00;;;;;;5095571;27;20414;-80
2022/03/18 10:15:39;;;;;;;15.82;5.88;;;18.00;94.60;;;;;;5130939;27;20387;-82
2022/03/18 10:18:09;;;;;;;21.17;5.93;;;18.20;95.00;;;;;;5111991;27;20410;-80
2022/03/18 10:20:40;;;;;;;19.35;6.10;;;18.50;94.70;;;;;;5095156;27;20403;-81
2022/03/18 10:23:19;;;;;;;18.98;5.82;;;18.70;93.90;;;;;;5129872;27;20415;-81
2022/03/18 10:25:52;;;;;;;19.65;6.20;;;18.80;92.20;;;;;;5111590;27;20406;-81
2022/03/18 10:28:39;;;;;;;18.00;5.03;;;18.70;92.90;;;;;;5111455;27;20417;-80
2022/03/18 10:31:20;;;;;;;19.13;5.95;;;19.00;92.20;;;;;;5094089;27;20422;-81
2022/03/18 10:37:04;;;;;;;20.50;5.25;;;19.40;92.00;;;;;;5111801;27;20413;-81
2022/03/18 10:39:35;;;;;;;20.05;6.18;;;19.60;89.50;;;;;;5095006;27;20916;-81
2022/03/18 10:42:04;;;;;;;21.55;5.70;;;19.60;87.80;;;;;;5130361;27;20419;-81
2022/03/18 10:44:51;;;;;;;20.87;5.93;;;19.50;87.80;;;;;;5111900;27;20406;-81
2022/03/18 10:47:38;;;;;;;19.20;5.67;;;19.50;87.60;;;;;;5095078;27;20421;-81
2022/03/18 10:50:10;;;;;;;18.60;5.65;;;19.50;85.10;;;;;;5112069;27;20406;-81
2022/03/18 10:52:40;;;;;;;18.90;6.03;;;19.50;88.40;;;;;;5129894;27;20398;-81
2022/03/18 10:55:28;;;;;;;17.17;5.57;;;19.80;86.70;;;;;;5111630;27;20401;-81
2022/03/18 10:58:03;;;;;;;26.50;6.65;;;20.00;83.00;;;;;;5112035;27;20540;-82
2022/03/18 11:00:34;;;;;;;21.20;5.70;;;20.10;84.30;;;;;;5094640;27;20413;-81
2022/03/18 11:03:03;;;;;;;18.73;6.30;;;20.20;83.90;;;;;;5109106;27;20517;-81
2022/03/18 11:05:40;;;;;;;19.33;6.65;;;20.40;83.30;;;;;;5132335;27;20427;-81
2022/03/18 11:08:11;;;;;;;18.20;6.22;;;20.50;81.90;;;;;;5114745;27;20409;-82
2022/03/18 11:13:28;;;;;;;20.47;6.80;;;20.80;81.40;;;;;;5150716;27;20393;-81
2022/03/18 11:15:54;;;;;;;21.77;7.40;;;20.80;78.00;;;;;;5150012;27;20389;-82
2022/03/18 11:18:21;;;;;;;21.70;7.35;;;20.70;76.70;;;;;;5150120;27;20407;-81
2022/03/18 11:20:50;;;;;;;17.52;6.68;;;20.70;79.90;;;;;;5132255;27;20755;-81
2022/03/18 11:23:22;;;;;;;19.77;7.60;;;20.80;79.20;;;;;;5114276;27;20431;-81
2022/03/18 11:25:57;;;;;;;20.65;7.63;;;20.80;78.00;;;;;;5131782;27;20451;-81
2022/03/18 11:28:25;;;;;;;20.17;7.38;;;20.90;78.60;;;;;;5131863;27;20962;-82
2022/03/18 11:31:08;;;;;;;24.23;7.97;;;21.00;77.10;;;;;;5131559;27;20404;-82
2022/03/18 11:33:36;;;;;;;17.23;7.20;;;21.00;77.80;;;;;;5131212;27;20955;-81
2022/03/18 11:36:05;;;;;;;21.35;8.07;;;21.10;79.00;;;;;;5114068;27;20412;-82
2022/03/18 11:38:51;;;;;;;19.17;7.93;;;21.50;78.30;;;;;;5113845;27;20400;-82
2022/03/18 11:41:19;;;;;;;22.05;8.80;;;21.70;76.90;;;;;;5131054;27;20982;-82
2022/03/18 11:43:44;;;;;;;21.95;7.68;;;21.90;77.10;;;;;;5131237;27;20533;-82
2022/03/18 11:46:13;;;;;;;22.53;7.87;;;22.10;75.30;;;;;;5114252;27;20488;-81
2022/03/18 11:49:13;;;;;;;21.85;7.35;;;22.10;75.80;;;;;;5113561;27;20411;-81
2022/03/18 11:51:42;;;;;;;20.57;7.20;;;22.30;74.50;;;;;;5109639;27;20444;-82
2022/03/18 11:54:10;;;;;;;20.10;7.40;;;22.20;73.40;;;;;;5131158;27;20440;-81
2022/03/18 11:56:39;;;;;;;22.08;7.15;;;22.10;72.20;;;;;;5131166;27;20414;-80
2022/03/18 11:59:31;;;;;;;18.55;7.43;;;22.10;74.10;;;;;;5130473;27;20457;-80
2022/03/18 12:02:01;;;;;;;18.98;7.35;;;21.90;73.10;;;;;;5124764;27;20501;-81
2022/03/18 12:04:33;;;;;;;23.13;7.07;;;21.70;71.60;;;;;;5110623;27;20802;-80
2022/03/18 12:07:19;;;;;;;18.42;6.28;;;21.70;70.40;;;;;;5109627;27;20411;-81
2022/03/18 12:09:57;;;;;;;23.77;6.72;;;21.60;70.80;;;;;;5109537;28;20413;-81
2022/03/18 12:12:36;;;;;;;21.58;6.15;;;21.60;72.10;;;;;;5109499;27;20471;-81
2022/03/18 12:15:08;;;;;;;19.48;5.53;;;21.80;72.20;;;;;;5109870;28;20526;-81
2022/03/18 12:17:44;;;;;;;18.70;5.53;;;21.70;70.40;;;;;;5109089;28;20436;-81
2022/03/18 12:20:13;;;;;;;20.93;5.50;;;21.70;70.80;;;;;;5127383;28;20410;-81
2022/03/18 12:22:42;;;;;;;19.73;5.55;;;21.80;71.50;;;;;;5109198;28;20457;-81
2022/03/18 12:25:08;;;;;;;19.42;5.07;;;21.90;69.50;;;;;;5109416;28;21075;-81
2022/03/18 12:27:36;;;;;;;26.63;6.47;;;21.90;69.50;;;;;;5109399;28;20398;-81
2022/03/18 12:30:15;;;;;;;19.70;4.90;;;21.90;69.10;;;;;;5110501;28;20971;-81
2022/03/18 12:32:48;;;;;;;19.25;4.70;;;21.80;68.00;;;;;;5110082;28;20406;-81
2022/03/18 12:35:16;;;;;;;21.95;5.28;;;21.70;68.80;;;;;;5110201;28;20409;-81
2022/03/18 12:37:45;;;;;;;20.30;4.80;;;21.70;69.60;;;;;;5110128;28;20701;-81
2022/03/18 12:40:16;;;;;;;20.92;4.72;;;21.60;68.10;;;;;;5109950;28;20487;-81
2022/03/18 12:42:56;;;;;;;19.40;5.13;;;21.60;68.90;;;;;;5092798;28;20419;-81
2022/03/18 12:45:29;;;;;;;23.05;4.95;;;21.80;68.40;;;;;;5128184;28;20780;-81
2022/03/18 12:48:00;;;;;;;21.42;5.25;;;21.80;68.60;;;;;;5109513;28;20398;-80
2022/03/18 12:50:38;;;;;;;19.48;4.70;;;21.70;67.20;;;;;;5131339;27;20414;-81
2022/03/18 12:53:15;;;;;;;21.83;4.97;;;21.60;66.50;;;;;;5114193;27;20442;-81
2022/03/18 12:55:42;;;;;;;18.20;4.88;;;21.40;66.70;;;;;;5113761;27;20407;-81
2022/03/18 12:58:08;;;;;;;18.23;4.40;;;21.50;68.50;;;;;;5132334;27;20519;-81
2022/03/18 13:00:40;;;;;;;21.27;4.88;;;21.70;67.70;;;;;;5114150;27;20485;-81
2022/03/18 13:03:08;;;;;;;18.08;4.68;;;21.60;65.50;;;;;;5112189;27;20425;-81
2022/03/18 13:05:33;;;;;;;18.98;4.80;;;21.50;66.50;;;;;;5116830;27;20412;-81
2022/03/18 13:08:07;;;;;;;20.70;4.93;;;21.50;65.80;;;;;;5152135;27;20400;-81
2022/03/18 13:10:33;;;;;;;20.50;4.53;;;21.50;65.80;;;;;;5133285;27;20788;-81
2022/03/18 13:13:13;;;;;;;19.73;4.13;;;21.40;65.30;;;;;;5151899;27;20404;-81
2022/03/18 13:15:42;;;;;;;19.13;4.25;;;21.60;67.40;;;;;;5152654;27;20482;-80
2022/03/18 13:18:12;;;;;;;20.60;4.65;;;21.60;65.50;;;;;;5133370;27;20508;-81